sensor_id;sensor_type;location;lat;lon;timestamp;pressure;altitude;pressure_sealevel;temperature;humidity
43486;BME280;30447;48.742;8.972;2022-07-05T00:01:19;97065.22;;;16.01;83.10
43486;BME280;30447;48.742;8.972;2022-07-05T00:03:46;97063.97;;;15.75;84.38
43486;BME280;30447;48.742;8.972;2022-07-05T00:06:12;97058.28;;;15.51;85.51
43486;BME280;30447;48.742;8.972;2022-07-05T00:08:39;97064.13;;;15.66;84.43
43486;BME280;30447;48.742;8.972;2022-07-05T00:11:05;97069.31;;;15.69;84.18
43486;BME280;30447;48.742;8.972;2022-07-05T00:13:33;97056.44;;;15.58;84.82
43486;BME280;30447;48.742;8.972;2022-07-05T00:15:59;97068.88;;;14.90;86.82
43486;BME280;30447;48.742;8.972;2022-07-05T00:18:26;97066.03;;;15.04;87.36
43486;BME280;30447;48.742;8.972;2022-07-05T00:20:52;97056.25;;;15.18;85.75
43486;BME280;30447;48.742;8.972;2022-07-05T00:23:19;97064.69;;;15.34;85.97
43486;BME280;30447;48.742;8.972;2022-07-05T00:25:46;97056.91;;;15.30;86.05
43486;BME280;30447;48.742;8.972;2022-07-05T00:28:12;97054.66;;;15.08;86.02
43486;BME280;30447;48.742;8.972;2022-07-05T00:30:41;97063.84;;;15.31;85.36
43486;BME280;30447;48.742;8.972;2022-07-05T00:33:08;97057.72;;;15.33;85.14
43486;BME280;30447;48.742;8.972;2022-07-05T00:35:34;97053.81;;;15.06;85.51
43486;BME280;30447;48.742;8.972;2022-07-05T00:38:01;97058.87;;;15.17;84.73
43486;BME280;30447;48.742;8.972;2022-07-05T00:40:28;97057.19;;;15.13;84.91
43486;BME280;30447;48.742;8.972;2022-07-05T00:42:55;97058.09;;;15.12;84.54
43486;BME280;30447;48.742;8.972;2022-07-05T00:45:21;97059.47;;;15.33;84.16
43486;BME280;30447;48.742;8.972;2022-07-05T00:47:48;97065.69;;;15.26;84.32
43486;BME280;30447;48.742;8.972;2022-07-05T00:50:15;97052.97;;;15.07;84.62
43486;BME280;30447;48.742;8.972;2022-07-05T00:52:42;97053.91;;;15.01;84.65
43486;BME280;30447;48.742;8.972;2022-07-05T00:55:08;97062.91;;;14.80;86.05
43486;BME280;30447;48.742;8.972;2022-07-05T00:57:36;97060.66;;;15.15;84.88
43486;BME280;30447;48.742;8.972;2022-07-05T01:00:04;97058.84;;;15.20;84.60
43486;BME280;30447;48.742;8.972;2022-07-05T01:02:32;97064.44;;;14.97;84.83
43486;BME280;30447;48.742;8.972;2022-07-05T01:04:59;97062.59;;;15.02;85.32
43486;BME280;30447;48.742;8.972;2022-07-05T01:07:26;97062.00;;;14.83;85.63
43486;BME280;30447;48.742;8.972;2022-07-05T01:09:54;97069.91;;;14.79;85.60
43486;BME280;30447;48.742;8.972;2022-07-05T01:12:21;97068.19;;;14.74;85.23
43486;BME280;30447;48.742;8.972;2022-07-05T01:14:48;97076.91;;;14.73;84.81
43486;BME280;30447;48.742;8.972;2022-07-05T01:17:15;97078.72;;;14.67;85.73
43486;BME280;30447;48.742;8.972;2022-07-05T01:19:43;97071.81;;;14.65;85.78
43486;BME280;30447;48.742;8.972;2022-07-05T01:22:16;97076.09;;;14.69;85.71
43486;BME280;30447;48.742;8.972;2022-07-05T01:24:46;97070.78;;;14.08;87.64
43486;BME280;30447;48.742;8.972;2022-07-05T01:27:14;97073.47;;;14.03;87.86
43486;BME280;30447;48.742;8.972;2022-07-05T01:29:42;97065.22;;;14.37;86.67
43486;BME280;30447;48.742;8.972;2022-07-05T01:32:09;97069.44;;;14.49;85.86
43486;BME280;30447;48.742;8.972;2022-07-05T01:34:38;97069.41;;;14.51;86.30
43486;BME280;30447;48.742;8.972;2022-07-05T01:37:05;97065.13;;;14.47;86.01
43486;BME280;30447;48.742;8.972;2022-07-05T01:39:33;97067.72;;;14.47;86.06
43486;BME280;30447;48.742;8.972;2022-07-05T01:42:00;97062.62;;;14.39;85.57
43486;BME280;30447;48.742;8.972;2022-07-05T01:44:27;97066.94;;;14.38;85.35
43486;BME280;30447;48.742;8.972;2022-07-05T01:47:00;97069.56;;;14.37;85.27
43486;BME280;30447;48.742;8.972;2022-07-05T01:49:34;97060.91;;;14.36;85.25
43486;BME280;30447;48.742;8.972;2022-07-05T01:52:11;97067.06;;;14.31;85.87
43486;BME280;30447;48.742;8.972;2022-07-05T01:54:39;97079.28;;;14.27;85.65
43486;BME280;30447;48.742;8.972;2022-07-05T01:57:07;97073.16;;;14.28;85.59
43486;BME280;30447;48.742;8.972;2022-07-05T01:59:35;97068.88;;;14.24;85.73
43486;BME280;30447;48.742;8.972;2022-07-05T02:02:05;97067.97;;;14.28;85.59
43486;BME280;30447;48.742;8.972;2022-07-05T02:04:35;97065.47;;;14.17;85.36
43486;BME280;30447;48.742;8.972;2022-07-05T02:07:07;97066.44;;;14.11;85.26
43486;BME280;30447;48.742;8.972;2022-07-05T02:09:36;97069.94;;;14.07;85.74
43486;BME280;30447;48.742;8.972;2022-07-05T02:12:04;97069.22;;;13.96;86.46
43486;BME280;30447;48.742;8.972;2022-07-05T02:14:31;97065.63;;;14.05;85.62
43486;BME280;30447;48.742;8.972;2022-07-05T02:16:58;97066.47;;;14.05;85.36
43486;BME280;30447;48.742;8.972;2022-07-05T02:19:25;97070.78;;;14.11;85.31
43486;BME280;30447;48.742;8.972;2022-07-05T02:21:51;97059.56;;;14.04;85.24
43486;BME280;30447;48.742;8.972;2022-07-05T02:24:20;97064.84;;;13.96;85.84
43486;BME280;30447;48.742;8.972;2022-07-05T02:26:48;97060.56;;;13.92;85.93
43486;BME280;30447;48.742;8.972;2022-07-05T02:29:15;97060.63;;;13.86;85.82
43486;BME280;30447;48.742;8.972;2022-07-05T02:31:41;97064.16;;;13.82;85.75
43486;BME280;30447;48.742;8.972;2022-07-05T02:34:08;97059.00;;;13.77;85.27
43486;BME280;30447;48.742;8.972;2022-07-05T02:36:34;97058.13;;;13.78;85.22
43486;BME280;30447;48.742;8.972;2022-07-05T02:39:01;97058.13;;;13.78;85.28
43486;BME280;30447;48.742;8.972;2022-07-05T02:41:27;97064.50;;;13.49;87.08
43486;BME280;30447;48.742;8.972;2022-07-05T02:43:54;97061.53;;;13.82;85.76
43486;BME280;30447;48.742;8.972;2022-07-05T02:46:21;97065.94;;;13.78;86.00
43486;BME280;30447;48.742;8.972;2022-07-05T02:48:47;97072.78;;;13.87;85.72
43486;BME280;30447;48.742;8.972;2022-07-05T02:51:14;97069.72;;;13.46;88.21
43486;BME280;30447;48.742;8.972;2022-07-05T02:53:42;97079.94;;;13.68;86.38
43486;BME280;30447;48.742;8.972;2022-07-05T02:56:09;97074.81;;;13.60;86.46
43486;BME280;30447;48.742;8.972;2022-07-05T02:58:37;97079.13;;;13.58;86.19
43486;BME280;30447;48.742;8.972;2022-07-05T03:01:04;97076.63;;;13.45;86.63
43486;BME280;30447;48.742;8.972;2022-07-05T03:03:31;97080.13;;;13.46;86.76
43486;BME280;30447;48.742;8.972;2022-07-05T03:05:57;97072.31;;;13.46;86.69
43486;BME280;30447;48.742;8.972;2022-07-05T03:08:24;97072.34;;;13.40;86.76
43486;BME280;30447;48.742;8.972;2022-07-05T03:10:51;97070.56;;;13.46;86.38
43486;BME280;30447;48.742;8.972;2022-07-05T03:13:17;97078.44;;;13.40;86.71
43486;BME280;30447;48.742;8.972;2022-07-05T03:15:44;97082.87;;;13.30;87.07
43486;BME280;30447;48.742;8.972;2022-07-05T03:18:10;97085.50;;;13.26;86.63
43486;BME280;30447;48.742;8.972;2022-07-05T03:20:37;97083.84;;;13.15;86.62
43486;BME280;30447;48.742;8.972;2022-07-05T03:23:04;97080.34;;;13.21;85.73
43486;BME280;30447;48.742;8.972;2022-07-05T03:25:30;97089.03;;;13.18;86.01
43486;BME280;30447;48.742;8.972;2022-07-05T03:27:57;97086.72;;;12.75;87.51
43486;BME280;30447;48.742;8.972;2022-07-05T03:30:24;97087.44;;;12.99;87.13
43486;BME280;30447;48.742;8.972;2022-07-05T03:32:50;97089.50;;;12.42;90.16
43486;BME280;30447;48.742;8.972;2022-07-05T03:35:17;97089.09;;;13.07;87.86
43486;BME280;30447;48.742;8.972;2022-07-05T03:37:43;97088.16;;;13.15;87.29
43486;BME280;30447;48.742;8.972;2022-07-05T03:40:10;97094.25;;;13.17;86.80
43486;BME280;30447;48.742;8.972;2022-07-05T03:42:37;97094.25;;;13.15;85.90
43486;BME280;30447;48.742;8.972;2022-07-05T03:45:04;97077.88;;;13.05;85.34
43486;BME280;30447;48.742;8.972;2022-07-05T03:47:31;97090.88;;;13.04;85.88
43486;BME280;30447;48.742;8.972;2022-07-05T03:49:58;97099.53;;;13.04;85.62
43486;BME280;30447;48.742;8.972;2022-07-05T03:52:24;97106.50;;;13.01;85.96
43486;BME280;30447;48.742;8.972;2022-07-05T03:54:51;97098.69;;;12.98;85.74
43486;BME280;30447;48.742;8.972;2022-07-05T03:57:17;97110.03;;;12.87;86.62
43486;BME280;30447;48.742;8.972;2022-07-05T03:59:44;97112.59;;;12.96;86.39
43486;BME280;30447;48.742;8.972;2022-07-05T04:02:11;97112.53;;;13.06;87.10
43486;BME280;30447;48.742;8.972;2022-07-05T04:04:37;97119.44;;;13.08;87.13
43486;BME280;30447;48.742;8.972;2022-07-05T04:07:04;97123.69;;;13.19;86.65
43486;BME280;30447;48.742;8.972;2022-07-05T04:09:31;97122.81;;;13.21;86.52
43486;BME280;30447;48.742;8.972;2022-07-05T04:11:57;97130.66;;;13.17;86.88
43486;BME280;30447;48.742;8.972;2022-07-05T04:14:24;97127.28;;;13.05;87.41
43486;BME280;30447;48.742;8.972;2022-07-05T04:16:50;97138.47;;;13.14;87.51
43486;BME280;30447;48.742;8.972;2022-07-05T04:19:17;97133.22;;;13.23;86.97
43486;BME280;30447;48.742;8.972;2022-07-05T04:21:44;97135.81;;;13.26;87.34
43486;BME280;30447;48.742;8.972;2022-07-05T04:24:10;97141.06;;;13.18;87.54
43486;BME280;30447;48.742;8.972;2022-07-05T04:26:37;97141.91;;;13.20;87.97
43486;BME280;30447;48.742;8.972;2022-07-05T04:29:04;97143.59;;;13.26;87.72
43486;BME280;30447;48.742;8.972;2022-07-05T04:31:31;97146.09;;;13.39;87.53
43486;BME280;30447;48.742;8.972;2022-07-05T04:33:57;97140.94;;;13.34;88.32
43486;BME280;30447;48.742;8.972;2022-07-05T04:36:24;97150.41;;;13.47;88.43
43486;BME280;30447;48.742;8.972;2022-07-05T04:38:51;97147.78;;;13.46;88.85
43486;BME280;30447;48.742;8.972;2022-07-05T04:41:17;97147.69;;;13.60;89.18
43486;BME280;30447;48.742;8.972;2022-07-05T04:43:44;97142.41;;;13.68;89.64
43486;BME280;30447;48.742;8.972;2022-07-05T04:46:10;97139.69;;;13.82;89.50
43486;BME280;30447;48.742;8.972;2022-07-05T04:48:37;97149.22;;;13.83;90.05
43486;BME280;30447;48.742;8.972;2022-07-05T04:51:04;97158.78;;;13.82;90.69
43486;BME280;30447;48.742;8.972;2022-07-05T04:53:30;97160.44;;;13.91;91.07
43486;BME280;30447;48.742;8.972;2022-07-05T04:55:57;97152.59;;;13.96;91.03
43486;BME280;30447;48.742;8.972;2022-07-05T04:58:24;97152.50;;;14.04;91.55
43486;BME280;30447;48.742;8.972;2022-07-05T05:00:50;97155.78;;;14.20;91.42
43486;BME280;30447;48.742;8.972;2022-07-05T05:03:17;97149.56;;;14.32;91.65
43486;BME280;30447;48.742;8.972;2022-07-05T05:05:45;97150.28;;;14.45;91.28
43486;BME280;30447;48.742;8.972;2022-07-05T05:08:12;97151.19;;;14.42;92.17
43486;BME280;30447;48.742;8.972;2022-07-05T05:10:38;97151.09;;;14.50;91.32
43486;BME280;30447;48.742;8.972;2022-07-05T05:13:05;97151.06;;;14.51;91.45
43486;BME280;30447;48.742;8.972;2022-07-05T05:15:32;97156.91;;;14.71;90.94
43486;BME280;30447;48.742;8.972;2022-07-05T05:17:58;97148.84;;;14.91;90.88
43486;BME280;30447;48.742;8.972;2022-07-05T05:20:25;97152.38;;;14.88;90.84
43486;BME280;30447;48.742;8.972;2022-07-05T05:22:51;97150.59;;;14.90;90.47
43486;BME280;30447;48.742;8.972;2022-07-05T05:25:18;97152.97;;;15.06;89.32
43486;BME280;30447;48.742;8.972;2022-07-05T05:27:47;97148.47;;;15.17;90.13
43486;BME280;30447;48.742;8.972;2022-07-05T05:30:18;97154.28;;;15.35;89.84
43486;BME280;30447;48.742;8.972;2022-07-05T05:32:45;97151.66;;;15.37;89.99
43486;BME280;30447;48.742;8.972;2022-07-05T05:35:12;97154.25;;;15.38;89.52
43486;BME280;30447;48.742;8.972;2022-07-05T05:37:52;97161.03;;;15.49;89.36
43486;BME280;30447;48.742;8.972;2022-07-05T05:40:22;97158.66;;;15.34;90.55
43486;BME280;30447;48.742;8.972;2022-07-05T05:42:50;97164.28;;;15.65;90.00
43486;BME280;30447;48.742;8.972;2022-07-05T05:45:19;97168.44;;;15.77;91.19
43486;BME280;30447;48.742;8.972;2022-07-05T05:47:55;97166.41;;;15.94;89.04
43486;BME280;30447;48.742;8.972;2022-07-05T05:50:33;97164.41;;;16.07;88.53
43486;BME280;30447;48.742;8.972;2022-07-05T05:53:01;97157.50;;;16.05;88.87
43486;BME280;30447;48.742;8.972;2022-07-05T05:55:29;97159.00;;;16.18;88.48
43486;BME280;30447;48.742;8.972;2022-07-05T05:58:13;97171.28;;;16.59;87.46
43486;BME280;30447;48.742;8.972;2022-07-05T06:00:44;97166.34;;;16.86;86.53
43486;BME280;30447;48.742;8.972;2022-07-05T06:03:15;97165.72;;;16.74;87.95
43486;BME280;30447;48.742;8.972;2022-07-05T06:05:42;97174.13;;;16.89;85.31
43486;BME280;30447;48.742;8.972;2022-07-05T06:08:09;97165.03;;;17.07;84.68
43486;BME280;30447;48.742;8.972;2022-07-05T06:10:36;97165.75;;;17.15;83.78
43486;BME280;30447;48.742;8.972;2022-07-05T06:13:06;97167.88;;;17.36;78.52
43486;BME280;30447;48.742;8.972;2022-07-05T06:15:35;97170.66;;;17.66;75.38
43486;BME280;30447;48.742;8.972;2022-07-05T06:18:03;97168.66;;;17.77;73.11
43486;BME280;30447;48.742;8.972;2022-07-05T06:20:32;97171.88;;;17.87;74.00
43486;BME280;30447;48.742;8.972;2022-07-05T06:23:01;97172.44;;;17.98;73.38
43486;BME280;30447;48.742;8.972;2022-07-05T06:25:29;97176.16;;;18.24;73.61
43486;BME280;30447;48.742;8.972;2022-07-05T06:28:02;97168.78;;;18.39;71.36
43486;BME280;30447;48.742;8.972;2022-07-05T06:30:33;97172.31;;;18.38;72.35
43486;BME280;30447;48.742;8.972;2022-07-05T06:33:02;97173.66;;;18.53;70.33
43486;BME280;30447;48.742;8.972;2022-07-05T06:35:31;97169.00;;;18.63;70.71
43486;BME280;30447;48.742;8.972;2022-07-05T06:38:08;97168.66;;;18.75;68.85
43486;BME280;30447;48.742;8.972;2022-07-05T06:40:40;97167.72;;;18.76;68.46
43486;BME280;30447;48.742;8.972;2022-07-05T06:43:13;97175.94;;;18.94;67.51
43486;BME280;30447;48.742;8.972;2022-07-05T06:45:40;97177.25;;;19.11;67.76
43486;BME280;30447;48.742;8.972;2022-07-05T06:48:10;97186.13;;;19.35;68.33
43486;BME280;30447;48.742;8.972;2022-07-05T06:50:40;97183.59;;;19.32;67.90
43486;BME280;30447;48.742;8.972;2022-07-05T06:53:08;97181.63;;;19.39;68.28
43486;BME280;30447;48.742;8.972;2022-07-05T06:55:36;97184.38;;;19.36;67.22
43486;BME280;30447;48.742;8.972;2022-07-05T06:58:05;97183.97;;;19.48;66.52
43486;BME280;30447;48.742;8.972;2022-07-05T07:00:33;97185.38;;;19.59;63.99
43486;BME280;30447;48.742;8.972;2022-07-05T07:03:00;97184.28;;;19.66;63.73
43486;BME280;30447;48.742;8.972;2022-07-05T07:05:27;97182.53;;;19.65;61.79
43486;BME280;30447;48.742;8.972;2022-07-05T07:07:54;97181.53;;;19.69;63.66
43486;BME280;30447;48.742;8.972;2022-07-05T07:10:39;97179.97;;;19.90;62.38
43486;BME280;30447;48.742;8.972;2022-07-05T07:13:06;97182.16;;;20.04;63.42
43486;BME280;30447;48.742;8.972;2022-07-05T07:15:32;97183.66;;;19.85;62.83
43486;BME280;30447;48.742;8.972;2022-07-05T07:18:04;97184.25;;;19.93;62.97
43486;BME280;30447;48.742;8.972;2022-07-05T07:20:31;97181.50;;;19.98;63.64
43486;BME280;30447;48.742;8.972;2022-07-05T07:22:57;97184.03;;;20.01;64.11
43486;BME280;30447;48.742;8.972;2022-07-05T07:25:24;97188.94;;;20.12;63.84
43486;BME280;30447;48.742;8.972;2022-07-05T07:27:53;97188.09;;;20.09;64.70
43486;BME280;30447;48.742;8.972;2022-07-05T07:30:24;97189.13;;;20.31;62.42
43486;BME280;30447;48.742;8.972;2022-07-05T07:32:52;97188.91;;;20.37;63.38
43486;BME280;30447;48.742;8.972;2022-07-05T07:35:20;97186.22;;;20.39;63.59
43486;BME280;30447;48.742;8.972;2022-07-05T07:37:47;97184.50;;;20.38;62.17
43486;BME280;30447;48.742;8.972;2022-07-05T07:40:14;97186.22;;;20.64;61.21
43486;BME280;30447;48.742;8.972;2022-07-05T07:42:41;97194.09;;;20.64;62.12
43486;BME280;30447;48.742;8.972;2022-07-05T07:45:08;97197.28;;;20.72;63.43
43486;BME280;30447;48.742;8.972;2022-07-05T07:47:36;97198.59;;;20.86;62.96
43486;BME280;30447;48.742;8.972;2022-07-05T07:50:04;97196.34;;;20.99;63.26
43486;BME280;30447;48.742;8.972;2022-07-05T07:52:32;97206.25;;;20.92;63.24
43486;BME280;30447;48.742;8.972;2022-07-05T07:55:00;97200.69;;;21.00;63.56
43486;BME280;30447;48.742;8.972;2022-07-05T07:57:28;97205.22;;;21.20;63.94
43486;BME280;30447;48.742;8.972;2022-07-05T07:59:56;97202.03;;;21.34;62.29
43486;BME280;30447;48.742;8.972;2022-07-05T08:02:23;97197.25;;;21.22;61.92
43486;BME280;30447;48.742;8.972;2022-07-05T08:04:50;97196.37;;;21.44;61.85
43486;BME280;30447;48.742;8.972;2022-07-05T08:07:18;97194.69;;;21.43;60.51
43486;BME280;30447;48.742;8.972;2022-07-05T08:09:45;97205.66;;;21.54;61.08
43486;BME280;30447;48.742;8.972;2022-07-05T08:12:13;97201.09;;;21.58;60.14
43486;BME280;30447;48.742;8.972;2022-07-05T08:14:40;97203.94;;;21.75;61.14
43486;BME280;30447;48.742;8.972;2022-07-05T08:17:07;97203.09;;;21.96;60.64
43486;BME280;30447;48.742;8.972;2022-07-05T08:19:35;97202.38;;;21.92;60.91
43486;BME280;30447;48.742;8.972;2022-07-05T08:22:21;97206.66;;;21.95;60.31
43486;BME280;30447;48.742;8.972;2022-07-05T08:24:49;97207.16;;;22.04;60.25
43486;BME280;30447;48.742;8.972;2022-07-05T08:27:16;97205.75;;;21.96;59.38
43486;BME280;30447;48.742;8.972;2022-07-05T08:29:44;97206.28;;;22.04;59.10
43486;BME280;30447;48.742;8.972;2022-07-05T08:32:10;97199.16;;;22.06;58.26
43486;BME280;30447;48.742;8.972;2022-07-05T08:34:37;97196.00;;;21.98;59.23
43486;BME280;30447;48.742;8.972;2022-07-05T08:37:05;97201.88;;;22.04;58.94
43486;BME280;30447;48.742;8.972;2022-07-05T08:39:33;97196.34;;;22.11;59.99
43486;BME280;30447;48.742;8.972;2022-07-05T08:42:01;97194.81;;;22.26;59.46
43486;BME280;30447;48.742;8.972;2022-07-05T08:44:30;97195.44;;;22.31;58.04
43486;BME280;30447;48.742;8.972;2022-07-05T08:47:02;97196.13;;;22.36;58.55
43486;BME280;30447;48.742;8.972;2022-07-05T08:49:30;97188.94;;;22.40;56.96
43486;BME280;30447;48.742;8.972;2022-07-05T08:52:02;97191.19;;;22.49;58.30
43486;BME280;30447;48.742;8.972;2022-07-05T08:54:30;97197.16;;;22.74;57.20
43486;BME280;30447;48.742;8.972;2022-07-05T08:56:58;97195.00;;;22.63;56.15
43486;BME280;30447;48.742;8.972;2022-07-05T08:59:24;97190.28;;;22.69;56.65
43486;BME280;30447;48.742;8.972;2022-07-05T09:01:52;97187.94;;;22.63;56.07
43486;BME280;30447;48.742;8.972;2022-07-05T09:04:22;97187.53;;;22.52;56.35
43486;BME280;30447;48.742;8.972;2022-07-05T09:06:52;97187.78;;;22.66;54.95
43486;BME280;30447;48.742;8.972;2022-07-05T09:09:24;97194.03;;;22.84;55.50
43486;BME280;30447;48.742;8.972;2022-07-05T09:11:52;97195.09;;;22.99;55.47
43486;BME280;30447;48.742;8.972;2022-07-05T09:14:24;97191.72;;;23.15;54.66
43486;BME280;30447;48.742;8.972;2022-07-05T09:16:51;97191.03;;;22.92;54.30
43486;BME280;30447;48.742;8.972;2022-07-05T09:19:18;97192.53;;;22.98;54.65
43486;BME280;30447;48.742;8.972;2022-07-05T09:21:45;97197.31;;;23.09;53.97
43486;BME280;30447;48.742;8.972;2022-07-05T09:24:13;97205.75;;;23.17;53.90
43486;BME280;30447;48.742;8.972;2022-07-05T09:26:44;97204.00;;;23.16;53.40
43486;BME280;30447;48.742;8.972;2022-07-05T09:29:19;97198.38;;;23.05;53.45
43486;BME280;30447;48.742;8.972;2022-07-05T09:31:49;97205.53;;;23.22;53.95
43486;BME280;30447;48.742;8.972;2022-07-05T09:34:18;97204.81;;;23.37;52.35
43486;BME280;30447;48.742;8.972;2022-07-05T09:39:36;97201.75;;;23.28;48.87
43486;BME280;30447;48.742;8.972;2022-07-05T09:42:20;97210.59;;;23.46;49.77
43486;BME280;30447;48.742;8.972;2022-07-05T09:44:54;97213.06;;;23.68;50.12
43486;BME280;30447;48.742;8.972;2022-07-05T09:47:24;97213.09;;;23.49;49.46
43486;BME280;30447;48.742;8.972;2022-07-05T09:49:55;97211.69;;;23.42;51.58
43486;BME280;30447;48.742;8.972;2022-07-05T09:52:30;97214.75;;;23.32;52.01
43486;BME280;30447;48.742;8.972;2022-07-05T09:55:03;97209.66;;;23.47;52.23
43486;BME280;30447;48.742;8.972;2022-07-05T09:57:47;97207.09;;;23.26;51.45
43486;BME280;30447;48.742;8.972;2022-07-05T10:00:17;97206.25;;;23.45;51.32
43486;BME280;30447;48.742;8.972;2022-07-05T10:02:52;97205.28;;;23.65;49.81
43486;BME280;30447;48.742;8.972;2022-07-05T10:05:26;97204.94;;;23.15;49.75
43486;BME280;30447;48.742;8.972;2022-07-05T10:07:59;97209.03;;;23.22;50.52
43486;BME280;30447;48.742;8.972;2022-07-05T10:10:29;97209.03;;;23.42;50.76
43486;BME280;30447;48.742;8.972;2022-07-05T10:12:59;97209.63;;;23.66;50.71
43486;BME280;30447;48.742;8.972;2022-07-05T10:15:30;97199.03;;;23.66;51.52
43486;BME280;30447;48.742;8.972;2022-07-05T10:23:15;97201.53;;;23.69;49.14
43486;BME280;30447;48.742;8.972;2022-07-05T10:25:47;97217.53;;;23.85;49.38
43486;BME280;30447;48.742;8.972;2022-07-05T10:28:19;97212.81;;;23.73;48.28
43486;BME280;30447;48.742;8.972;2022-07-05T10:30:48;97214.88;;;23.85;48.71
43486;BME280;30447;48.742;8.972;2022-07-05T10:33:19;97216.19;;;23.94;49.74
43486;BME280;30447;48.742;8.972;2022-07-05T10:35:53;97209.28;;;23.91;50.30
43486;BME280;30447;48.742;8.972;2022-07-05T10:38:21;97201.50;;;24.24;49.49
43486;BME280;30447;48.742;8.972;2022-07-05T10:40:54;97202.53;;;24.21;49.84
43486;BME280;30447;48.742;8.972;2022-07-05T10:43:24;97197.38;;;24.36;49.79
43486;BME280;30447;48.742;8.972;2022-07-05T10:45:52;97195.59;;;24.36;48.76
43486;BME280;30447;48.742;8.972;2022-07-05T10:48:22;97196.13;;;24.25;49.16
43486;BME280;30447;48.742;8.972;2022-07-05T10:50:55;97199.44;;;24.13;49.65
43486;BME280;30447;48.742;8.972;2022-07-05T10:58:35;97196.03;;;24.44;49.12
43486;BME280;30447;48.742;8.972;2022-07-05T11:11:26;97206.88;;;24.22;49.49
43486;BME280;30447;48.742;8.972;2022-07-05T11:13:55;97201.31;;;24.44;50.03
43486;BME280;30447;48.742;8.972;2022-07-05T11:16:26;97204.56;;;24.16;50.16
43486;BME280;30447;48.742;8.972;2022-07-05T11:21:34;97209.66;;;24.37;49.89
43486;BME280;30447;48.742;8.972;2022-07-05T11:24:20;97210.41;;;24.56;50.24
43486;BME280;30447;48.742;8.972;2022-07-05T11:26:51;97206.75;;;24.59;50.83
43486;BME280;30447;48.742;8.972;2022-07-05T11:29:48;97207.41;;;24.80;49.14
43486;BME280;30447;48.742;8.972;2022-07-05T11:35:11;97208.03;;;24.52;48.43
43486;BME280;30447;48.742;8.972;2022-07-05T11:38:03;97204.63;;;24.66;48.64
43486;BME280;30447;48.742;8.972;2022-07-05T11:40:36;97189.75;;;24.63;50.29
43486;BME280;30447;48.742;8.972;2022-07-05T11:43:06;97190.53;;;24.83;48.55
43486;BME280;30447;48.742;8.972;2022-07-05T11:45:35;97186.50;;;24.58;49.22
43486;BME280;30447;48.742;8.972;2022-07-05T11:48:03;97181.72;;;24.82;48.86
43486;BME280;30447;48.742;8.972;2022-07-05T11:50:33;97185.25;;;24.99;49.58
43486;BME280;30447;48.742;8.972;2022-07-05T11:53:01;97177.41;;;24.64;49.27
43486;BME280;30447;48.742;8.972;2022-07-05T11:55:29;97184.81;;;24.57;49.23
43486;BME280;30447;48.742;8.972;2022-07-05T11:57:58;97179.69;;;24.70;48.86
43486;BME280;30447;48.742;8.972;2022-07-05T12:00:33;97184.03;;;24.89;49.24
43486;BME280;30447;48.742;8.972;2022-07-05T12:03:14;97188.75;;;24.66;49.32
43486;BME280;30447;48.742;8.972;2022-07-05T12:05:42;97186.50;;;24.58;49.36
43486;BME280;30447;48.742;8.972;2022-07-05T12:08:09;97179.25;;;24.28;48.98
43486;BME280;30447;48.742;8.972;2022-07-05T12:10:36;97176.91;;;24.73;49.59
43486;BME280;30447;48.742;8.972;2022-07-05T12:13:22;97169.94;;;25.04;48.98
43486;BME280;30447;48.742;8.972;2022-07-05T12:15:48;97167.28;;;25.04;49.12
43486;BME280;30447;48.742;8.972;2022-07-05T12:18:15;97158.75;;;25.15;49.52
43486;BME280;30447;48.742;8.972;2022-07-05T12:20:42;97161.50;;;25.14;48.98
43486;BME280;30447;48.742;8.972;2022-07-05T12:23:09;97159.25;;;25.22;48.34
43486;BME280;30447;48.742;8.972;2022-07-05T12:25:35;97162.41;;;25.29;48.69
43486;BME280;30447;48.742;8.972;2022-07-05T12:28:03;97163.66;;;25.38;49.22
43486;BME280;30447;48.742;8.972;2022-07-05T12:30:33;97161.16;;;24.88;48.40
43486;BME280;30447;48.742;8.972;2022-07-05T12:33:05;97163.88;;;24.86;48.21
43486;BME280;30447;48.742;8.972;2022-07-05T12:35:41;97165.06;;;24.96;48.44
43486;BME280;30447;48.742;8.972;2022-07-05T12:38:20;97165.87;;;24.81;49.29
43486;BME280;30447;48.742;8.972;2022-07-05T12:40:56;97165.87;;;24.81;48.37
43486;BME280;30447;48.742;8.972;2022-07-05T12:43:25;97151.25;;;24.74;48.19
43486;BME280;30447;48.742;8.972;2022-07-05T12:46:07;97162.34;;;24.98;49.35
43486;BME280;30447;48.742;8.972;2022-07-05T12:48:36;97150.69;;;25.33;49.01
43486;BME280;30447;48.742;8.972;2022-07-05T12:51:05;97159.94;;;25.26;48.83
43486;BME280;30447;48.742;8.972;2022-07-05T12:53:34;97167.28;;;25.36;48.37
43486;BME280;30447;48.742;8.972;2022-07-05T12:56:29;97144.50;;;25.48;47.66
43486;BME280;30447;48.742;8.972;2022-07-05T12:59:15;97160.53;;;25.31;48.03
43486;BME280;30447;48.742;8.972;2022-07-05T13:01:44;97149.03;;;25.62;49.00
43486;BME280;30447;48.742;8.972;2022-07-05T13:04:13;97154.06;;;25.83;47.04
43486;BME280;30447;48.742;8.972;2022-07-05T13:06:47;97161.81;;;25.40;47.52
43486;BME280;30447;48.742;8.972;2022-07-05T13:09:29;97158.56;;;25.34;48.49
43486;BME280;30447;48.742;8.972;2022-07-05T13:14:43;97157.34;;;25.72;47.80
43486;BME280;30447;48.742;8.972;2022-07-05T13:17:19;97160.56;;;26.08;47.74
43486;BME280;30447;48.742;8.972;2022-07-05T13:19:51;97152.63;;;25.61;47.59
43486;BME280;30447;48.742;8.972;2022-07-05T13:22:18;97148.59;;;26.01;48.92
43486;BME280;30447;48.742;8.972;2022-07-05T13:24:45;97141.31;;;26.19;47.36
43486;BME280;30447;48.742;8.972;2022-07-05T13:27:12;97143.97;;;26.19;47.11
43486;BME280;30447;48.742;8.972;2022-07-05T13:29:39;97142.00;;;26.37;46.92
43486;BME280;30447;48.742;8.972;2022-07-05T13:32:07;97145.72;;;26.49;47.02
43486;BME280;30447;48.742;8.972;2022-07-05T13:34:33;97150.31;;;26.17;46.72
43486;BME280;30447;48.742;8.972;2022-07-05T13:37:00;97142.53;;;25.99;48.48
43486;BME280;30447;48.742;8.972;2022-07-05T13:39:28;97143.53;;;26.41;46.96
43486;BME280;30447;48.742;8.972;2022-07-05T13:41:56;97137.19;;;26.44;46.54